Pine Lake, Minnesota
Current Conditions -  °F | °C
As of 1:35 AM on Sunday 23 Nov 2014 (Local Time) from KFSE Reporting Station
Haze Haze  
Wind Chill: 26°   Ceiling: 700
Heat Index: 32°   Visibility: 5mi
Dew Point: 30°   Wind: 6mph
Humidity: 93%   Direction: 170°S
Pressure: 29.37"   Gusts: NA
Location:  47.8469°N, 95.4815°W
Report Text: KFSE 230735Z AUTO 17005KT 5SM BR OVC007 00/M01 A2937 RMK AO2
Loading
Personal Weather Stations






























Interactive Weather Map New forecast layout! Learn more

10-Day Weather Forecast

Advertisements
Track Severe Weather on mobile